Time;durP1;ratioP1;P1;durP2;ratioP2;P2;SDS_P1;SDS_P2;PMS_P1;PMS_P2;Temp;Humidity;BMP_temperature;BMP_pressure;BME280_temperature;BME280_humidity;BME280_pressure;Samples;Min_cycle;Max_cycle;Signal;HPM_P1;HPM_P2
2022/02/08 00:01:19;;;;;;;;;;;0.30;99.90;;;;;;5089283;28;20061;-52
2022/02/08 00:03:46;;;;;;;;;;;0.20;99.90;;;;;;5084448;28;19940;-51
2022/02/08 00:06:28;;;;;;;;;;;0.20;99.90;;;;;;5083242;28;19993;-52
2022/02/08 00:08:54;;;;;;;;;;;0.30;99.90;;;;;;5085025;28;20016;-52
2022/02/08 00:11:21;;;;;;;;;;;0.30;99.90;;;;;;5079877;28;19935;-52
2022/02/08 00:13:49;;;;;;;;;;;0.30;99.90;;;;;;5088915;28;19924;-51
2022/02/08 00:16:16;;;;;;;;;;;0.40;99.90;;;;;;5089215;28;19928;-51
2022/02/08 00:18:43;;;;;;;;;;;0.50;99.90;;;;;;5088461;28;20447;-52
2022/02/08 00:21:10;;;;;;;;;;;0.50;99.90;;;;;;5089071;28;19928;-51
2022/02/08 00:23:36;;;;;;;;;;;0.50;99.90;;;;;;5082910;28;19928;-53
2022/02/08 00:26:03;;;;;;;;;;;0.40;99.90;;;;;;5088621;28;19924;-52
2022/02/08 00:28:30;;;;;;;;;;;0.40;99.90;;;;;;5088385;28;19978;-51
2022/02/08 00:30:58;;;;;;;;;;;0.30;99.90;;;;;;5084812;28;19928;-52
2022/02/08 00:33:25;;;;;;;;;;;0.40;99.90;;;;;;5082454;28;19924;-54
2022/02/08 00:35:52;;;;;;;;;;;0.40;99.90;;;;;;5077667;28;19962;-52
2022/02/08 00:38:18;;;;;;;;;;;0.20;99.90;;;;;;5083265;28;19932;-51
2022/02/08 00:40:47;;;;;;;;;;;0.10;99.90;;;;;;5078820;28;19928;-53
2022/02/08 00:43:18;;;;;;;;;;;0.10;99.90;;;;;;5080035;28;19924;-51
2022/02/08 00:45:52;;;;;;;;;;;0.20;99.90;;;;;;5080901;28;20281;-52
2022/02/08 00:48:28;;;;;;;;;;;0.10;99.90;;;;;;5086676;28;19925;-52
2022/02/08 00:50:55;;;;;;;;;;;0.10;99.90;;;;;;5088821;28;20385;-51
2022/02/08 00:53:24;;;;;;;;;;;0.10;99.90;;;;;;5084711;28;19979;-52
2022/02/08 00:55:51;;;;;;;;;;;0.20;99.90;;;;;;5079464;28;19932;-51
2022/02/08 00:58:18;;;;;;;;;;;0.20;99.90;;;;;;5079857;28;20297;-51
2022/02/08 01:00:45;;;;;;;;;;;0.10;99.90;;;;;;5087088;28;19928;-52
2022/02/08 01:03:11;;;;;;;;;;;0.10;99.90;;;;;;5082975;28;20015;-51
2022/02/08 01:05:45;;;;;;;;;;;0.10;99.90;;;;;;5080317;28;19924;-51
2022/02/08 01:08:11;;;;;;;;;;;0.00;99.90;;;;;;5087713;28;20008;-52
2022/02/08 01:10:40;;;;;;;;;;;0.10;99.90;;;;;;5083705;28;19928;-52
2022/02/08 01:13:08;;;;;;;;;;;0.10;99.90;;;;;;5087129;28;19928;-53
2022/02/08 01:15:35;;;;;;;;;;;0.10;99.90;;;;;;5078617;28;20008;-51
2022/02/08 01:18:01;;;;;;;;;;;0.10;99.90;;;;;;5080349;28;19930;-52
2022/02/08 01:20:33;;;;;;;;;;;0.20;99.90;;;;;;5087688;28;19928;-52
2022/02/08 01:23:04;;;;;;;;;;;0.20;99.90;;;;;;5075201;28;20342;-51
2022/02/08 01:25:35;;;;;;;;;;;0.30;99.90;;;;;;5080110;28;19928;-53
2022/02/08 01:28:16;;;;;;;;;;;0.40;99.90;;;;;;5088791;28;19932;-52
2022/02/08 01:30:57;;;;;;;;;;;0.40;99.90;;;;;;5077578;28;20658;-52
2022/02/08 01:33:42;;;;;;;;;;;0.40;99.90;;;;;;5083096;28;19924;-51
2022/02/08 01:36:32;;;;;;;;;;;0.40;99.90;;;;;;5087509;28;19963;-52
2022/02/08 01:39:08;;;;;;;;;;;0.50;99.90;;;;;;5075212;28;19924;-53
2022/02/08 01:41:48;;;;;;;;;;;0.50;99.90;;;;;;5081518;28;19966;-53
2022/02/08 01:44:22;;;;;;;;;;;0.50;99.90;;;;;;5085667;28;20363;-52
2022/02/08 01:46:59;;;;;;;;;;;0.50;99.90;;;;;;5091654;28;19971;-51
2022/02/08 01:49:33;;;;;;;;;;;0.60;99.90;;;;;;5115792;22;19924;-49
2022/02/08 01:52:00;;;;;;;;;;;0.60;99.90;;;;;;5097627;28;20479;-51
2022/02/08 01:54:28;;;;;;;;;;;0.70;99.90;;;;;;5089824;28;19974;-50
2022/02/08 01:56:55;;;;;;;;;;;0.70;99.90;;;;;;5095650;28;20371;-50
2022/02/08 01:59:22;;;;;;;;;;;0.70;99.90;;;;;;5087508;28;20389;-49
2022/02/08 02:01:49;;;;;;;;;;;0.70;99.90;;;;;;5102583;28;20260;-50
2022/02/08 02:04:16;;;;;;;;;;;0.70;99.90;;;;;;5098089;28;19924;-50
2022/02/08 02:06:43;;;;;;;;;;;0.80;99.90;;;;;;5093975;28;20002;-49
2022/02/08 02:09:09;;;;;;;;;;;0.80;99.90;;;;;;5103558;28;20306;-50
2022/02/08 02:11:38;;;;;;;;;;;0.80;99.90;;;;;;5099169;28;19928;-50
2022/02/08 02:14:04;;;;;;;;;;;0.70;99.90;;;;;;5102005;28;19928;-51
2022/02/08 02:16:41;;;;;;;;;;;0.80;99.90;;;;;;5096356;28;19981;-50
2022/02/08 02:19:08;;;;;;;;;;;0.80;99.90;;;;;;5094423;28;20013;-50
2022/02/08 02:21:35;;;;;;;;;;;0.70;99.90;;;;;;5096450;28;19950;-49
2022/02/08 02:24:03;;;;;;;;;;;0.80;99.90;;;;;;5097089;28;19924;-48
2022/02/08 02:26:30;;;;;;;;;;;0.80;99.90;;;;;;5090211;28;19927;-50
2022/02/08 02:28:56;;;;;;;;;;;0.90;99.90;;;;;;5095586;28;19984;-50
2022/02/08 02:31:23;;;;;;;;;;;0.90;99.90;;;;;;5088538;28;20399;-50
2022/02/08 02:33:50;;;;;;;;;;;0.90;99.90;;;;;;5097978;28;19928;-50
2022/02/08 02:36:17;;;;;;;;;;;0.90;99.90;;;;;;5097151;28;19967;-50
2022/02/08 02:38:44;;;;;;;;;;;0.80;99.90;;;;;;5096718;28;19928;-51
2022/02/08 02:41:12;;;;;;;;;;;0.80;99.90;;;;;;5093017;28;19928;-49
2022/02/08 02:43:41;;;;;;;;;;;0.90;99.90;;;;;;5095932;28;19928;-51
2022/02/08 02:46:07;;;;;;;;;;;0.90;99.90;;;;;;5095484;28;20011;-50
2022/02/08 02:48:34;;;;;;;;;;;0.90;99.90;;;;;;5101372;28;19931;-49
2022/02/08 02:51:01;;;;;;;;;;;0.90;99.90;;;;;;5097897;28;19924;-49
2022/02/08 02:53:30;;;;;;;;;;;0.90;99.90;;;;;;5099260;28;19931;-49
2022/02/08 02:55:57;;;;;;;;;;;1.00;99.90;;;;;;5091959;28;20019;-49
2022/02/08 02:58:29;;;;;;;;;;;1.00;99.90;;;;;;5100189;28;19924;-50
2022/02/08 03:01:12;;;;;;;;;;;1.00;99.90;;;;;;5103121;28;19924;-50
2022/02/08 03:03:57;;;;;;;;;;;0.90;99.90;;;;;;5089310;28;20410;-50
2022/02/08 03:17:53;;;;;;;;;;;1.00;99.90;;;;;;5091710;28;19935;-51
2022/02/08 03:20:20;;;;;;;;;;;1.00;99.90;;;;;;5086776;28;20005;-51
2022/02/08 03:22:47;;;;;;;;;;;1.00;99.90;;;;;;5093683;28;19990;-49
2022/02/08 03:25:14;;;;;;;;;;;1.00;99.90;;;;;;5095019;28;20287;-51
2022/02/08 03:27:41;;;;;;;;;;;0.90;99.90;;;;;;5091664;28;19924;-50
2022/02/08 03:30:10;;;;;;;;;;;0.90;99.90;;;;;;5085906;28;19970;-50
2022/02/08 03:32:37;;;;;;;;;;;0.90;99.90;;;;;;5089349;28;20374;-50
2022/02/08 03:35:04;;;;;;;;;;;1.00;99.90;;;;;;5090692;28;20382;-49
2022/02/08 03:37:33;;;;;;;;;;;1.00;99.90;;;;;;5098632;28;20019;-50
2022/02/08 03:40:05;;;;;;;;;;;1.10;99.90;;;;;;5093524;28;20132;-51
2022/02/08 03:42:37;;;;;;;;;;;1.00;99.90;;;;;;5087800;28;20018;-51
2022/02/08 03:45:05;;;;;;;;;;;1.00;99.90;;;;;;5097734;28;20293;-50
2022/02/08 03:47:34;;;;;;;;;;;1.00;99.90;;;;;;5090736;28;19954;-50
2022/02/08 03:50:03;;;;;;;;;;;1.10;99.90;;;;;;5090052;28;20376;-50
2022/02/08 03:52:30;;;;;;;;;;;1.10;99.90;;;;;;5096081;28;19935;-48
2022/02/08 03:54:56;;;;;;;;;;;1.20;99.90;;;;;;5083525;28;19932;-53
2022/02/08 03:57:25;;;;;;;;;;;1.10;99.90;;;;;;5090332;28;20064;-51
2022/02/08 03:59:52;;;;;;;;;;;1.10;99.90;;;;;;5089929;28;20301;-53
2022/02/08 04:02:34;;;;;;;;;;;1.00;99.90;;;;;;5092257;28;19932;-52
2022/02/08 04:05:08;;;;;;;;;;;0.90;99.90;;;;;;5088825;28;19935;-51
2022/02/08 04:07:39;;;;;;;;;;;0.90;99.90;;;;;;5092233;28;20010;-56
2022/02/08 04:10:08;;;;;;;;;;;0.80;99.90;;;;;;5088406;28;19924;-52
2022/02/08 04:12:42;;;;;;;;;;;0.80;99.90;;;;;;5088893;28;20412;-52
2022/02/08 04:15:24;;;;;;;;;;;0.80;99.90;;;;;;5088205;28;19924;-51
2022/02/08 04:18:17;;;;;;;;;;;0.70;99.90;;;;;;5089584;28;20010;-51
2022/02/08 04:34:42;;;;;;;;;;;0.50;99.90;;;;;;5089196;28;19926;-52
2022/02/08 04:40:08;;;;;;;;;;;0.30;99.90;;;;;;5084744;28;19932;-53
2022/02/08 04:42:40;;;;;;;;;;;0.40;99.90;;;;;;5091530;28;19924;-52
2022/02/08 04:45:10;;;;;;;;;;;0.40;99.90;;;;;;5092170;28;19957;-52
2022/02/08 04:47:42;;;;;;;;;;;0.40;99.90;;;;;;5089510;28;19932;-49
2022/02/08 04:50:10;;;;;;;;;;;0.50;99.90;;;;;;5090857;28;19927;-54
2022/02/08 04:52:38;;;;;;;;;;;0.50;99.90;;;;;;5092820;28;19928;-50
2022/02/08 04:55:23;;;;;;;;;;;0.60;99.90;;;;;;5090363;28;20450;-53
2022/02/08 04:58:08;;;;;;;;;;;0.70;99.90;;;;;;5088740;28;20070;-51
2022/02/08 05:00:40;;;;;;;;;;;0.60;99.90;;;;;;5090485;28;19932;-53
2022/02/08 05:36:58;;;;;;;;;;;0.50;99.90;;;;;;5064904;28;19920;-49
2022/02/08 05:42:21;;;;;;;;;;;0.70;99.90;;;;;;5090416;28;19950;-49
2022/02/08 05:44:55;;;;;;;;;;;0.70;99.90;;;;;;5092730;28;19939;-49
2022/02/08 05:47:22;;;;;;;;;;;0.70;99.90;;;;;;5095860;28;20019;-49
2022/02/08 05:50:02;;;;;;;;;;;0.70;99.90;;;;;;5092689;28;20350;-48
2022/02/08 05:52:48;;;;;;;;;;;0.80;99.90;;;;;;5089571;28;20019;-50
2022/02/08 05:55:15;;;;;;;;;;;0.90;99.90;;;;;;5089718;28;19935;-49
2022/02/08 05:57:43;;;;;;;;;;;0.90;99.90;;;;;;5093668;28;19924;-54
2022/02/08 06:00:11;;;;;;;;;;;0.90;99.90;;;;;;5089897;28;19935;-51
2022/02/08 06:02:38;;;;;;;;;;;0.90;99.90;;;;;;5093100;28;19924;-51
2022/02/08 06:05:09;;;;;;;;;;;1.00;99.90;;;;;;5092558;28;19928;-51
2022/02/08 06:07:36;;;;;;;;;;;1.10;99.90;;;;;;5094182;28;20030;-51
2022/02/08 06:10:03;;;;;;;;;;;1.20;99.90;;;;;;5091361;28;19928;-53
2022/02/08 06:12:30;;;;;;;;;;;1.20;99.90;;;;;;5092693;28;19924;-51
2022/02/08 06:15:01;;;;;;;;;;;1.20;99.90;;;;;;5092980;28;20377;-53
2022/02/08 06:17:27;;;;;;;;;;;1.20;99.90;;;;;;5093181;28;19931;-51
2022/02/08 06:19:56;;;;;;;;;;;1.10;99.90;;;;;;5092678;28;19924;-52
2022/02/08 06:22:23;;;;;;;;;;;1.20;99.90;;;;;;5092676;28;20340;-53
2022/02/08 06:24:50;;;;;;;;;;;1.20;99.90;;;;;;5093403;28;20478;-54
2022/02/08 06:27:16;;;;;;;;;;;1.20;99.90;;;;;;5093350;28;19924;-51
2022/02/08 06:29:43;;;;;;;;;;;1.10;99.90;;;;;;5094135;28;20295;-51
2022/02/08 06:32:11;;;;;;;;;;;1.20;99.90;;;;;;5091635;28;19934;-50
2022/02/08 06:34:38;;;;;;;;;;;1.10;99.90;;;;;;5094296;28;20393;-51
2022/02/08 06:37:10;;;;;;;;;;;1.20;99.90;;;;;;5090058;28;19935;-57
2022/02/08 06:39:37;;;;;;;;;;;1.20;99.90;;;;;;5090984;28;19931;-54
2022/02/08 06:42:05;;;;;;;;;;;1.20;99.90;;;;;;5089270;28;19928;-52
2022/02/08 06:44:32;;;;;;;;;;;1.20;99.90;;;;;;5092472;28;20367;-52
2022/02/08 06:46:58;;;;;;;;;;;1.20;99.90;;;;;;5092363;28;19984;-51
2022/02/08 06:49:27;;;;;;;;;;;1.10;99.90;;;;;;5090208;28;19975;-54
2022/02/08 06:51:53;;;;;;;;;;;1.10;99.90;;;;;;5089521;28;19924;-52
2022/02/08 06:54:20;;;;;;;;;;;1.20;99.90;;;;;;5090499;28;20309;-54
2022/02/08 06:56:47;;;;;;;;;;;1.30;99.90;;;;;;5088382;28;19924;-52
2022/02/08 06:59:17;;;;;;;;;;;1.30;99.90;;;;;;5085066;28;20035;-51
2022/02/08 07:01:44;;;;;;;;;;;1.30;99.90;;;;;;5088782;28;20021;-51
2022/02/08 07:04:14;;;;;;;;;;;1.30;99.90;;;;;;5096875;28;19977;-51
2022/02/08 07:06:43;;;;;;;;;;;1.40;99.90;;;;;;5094180;28;20007;-51
2022/02/08 07:09:09;;;;;;;;;;;1.40;99.90;;;;;;5098077;28;20268;-52
2022/02/08 07:11:36;;;;;;;;;;;1.60;99.90;;;;;;5106618;28;19949;-53
2022/02/08 07:14:05;;;;;;;;;;;1.70;99.90;;;;;;5096534;28;20346;-53
2022/02/08 07:16:31;;;;;;;;;;;1.80;99.90;;;;;;5103208;28;19981;-51
2022/02/08 07:18:58;;;;;;;;;;;1.80;99.90;;;;;;5092263;28;19924;-53
2022/02/08 07:21:25;;;;;;;;;;;1.90;99.90;;;;;;5091742;28;19932;-52
2022/02/08 07:23:53;;;;;;;;;;;1.90;99.90;;;;;;5090587;28;20023;-51
2022/02/08 07:26:21;;;;;;;;;;;1.90;99.90;;;;;;5092840;28;19924;-52
2022/02/08 07:28:48;;;;;;;;;;;2.10;99.90;;;;;;5092921;28;19924;-52
2022/02/08 07:31:19;;;;;;;;;;;2.20;99.90;;;;;;5095469;28;19943;-55
2022/02/08 07:33:53;;;;;;;;;;;2.10;99.90;;;;;;5092982;28;19977;-52
2022/02/08 07:36:39;;;;;;;;;;;2.10;99.90;;;;;;5103373;28;20385;-52
2022/02/08 07:39:10;;;;;;;;;;;2.20;99.90;;;;;;5095029;28;19931;-51
2022/02/08 07:41:38;;;;;;;;;;;2.10;99.90;;;;;;5091584;28;19924;-51
2022/02/08 07:44:06;;;;;;;;;;;2.10;99.90;;;;;;5086730;28;19924;-52
2022/02/08 07:46:32;;;;;;;;;;;2.10;99.90;;;;;;5097735;28;20410;-52
2022/02/08 07:51:27;;;;;;;;;;;2.40;99.90;;;;;;5066699;28;19924;-50
2022/02/08 07:53:53;;;;;;;;;;;2.40;99.90;;;;;;5054265;28;19924;-50
2022/02/08 07:56:22;;;;;;;;;;;2.60;99.90;;;;;;5065363;28;20287;-50
2022/02/08 07:58:48;;;;;;;;;;;2.80;99.90;;;;;;5063497;28;20337;-52
2022/02/08 08:01:15;;;;;;;;;;;2.90;99.90;;;;;;5063401;28;19967;-50
2022/02/08 08:03:42;;;;;;;;;;;2.90;99.90;;;;;;5063142;28;19994;-50
2022/02/08 08:06:09;;;;;;;;;;;2.90;99.90;;;;;;5065345;28;19924;-50
2022/02/08 08:08:36;;;;;;;;;;;2.70;99.90;;;;;;5061944;28;19925;-52
2022/02/08 08:11:07;;;;;;;;;;;2.90;99.90;;;;;;5064944;28;20013;-51
2022/02/08 08:13:40;;;;;;;;;;;3.10;99.90;;;;;;5062039;28;19978;-50
2022/02/08 08:16:17;;;;;;;;;;;3.20;99.90;;;;;;5063394;28;19931;-51
2022/02/08 08:18:57;;;;;;;;;;;3.30;99.90;;;;;;5062439;28;19942;-50
2022/02/08 08:21:24;;;;;;;;;;;3.30;99.90;;;;;;5064292;28;20490;-50
2022/02/08 08:23:50;;;;;;;;;;;3.40;99.90;;;;;;5063901;28;19932;-50
2022/02/08 08:26:17;;;;;;;;;;;3.50;99.90;;;;;;5063216;28;19986;-50
2022/02/08 08:28:45;;;;;;;;;;;3.70;99.90;;;;;;5061489;28;19932;-50
2022/02/08 08:31:12;;;;;;;;;;;3.70;99.90;;;;;;5063826;28;19990;-50
2022/02/08 08:33:39;;;;;;;;;;;3.70;99.90;;;;;;5069673;28;19951;-50
2022/02/08 08:36:06;;;;;;;;;;;3.60;99.90;;;;;;5067755;28;19924;-50
2022/02/08 08:38:33;;;;;;;;;;;3.90;99.90;;;;;;5066001;28;19936;-50
2022/02/08 08:41:07;;;;;;;;;;;3.80;99.90;;;;;;5065593;28;19925;-50
2022/02/08 08:49:29;;;;;;;;;;;3.60;99.90;;;;;;5066052;28;19932;-50
2022/02/08 08:51:57;;;;;;;;;;;3.80;99.90;;;;;;5067822;28;20416;-51
2022/02/08 08:54:24;;;;;;;;;;;3.80;99.90;;;;;;5065899;28;19935;-51
2022/02/08 08:56:52;;;;;;;;;;;4.10;99.90;;;;;;5066021;28;20031;-50
2022/02/08 08:59:19;;;;;;;;;;;4.30;99.90;;;;;;5065544;28;19924;-51
2022/02/08 09:01:49;;;;;;;;;;;4.50;99.90;;;;;;5070949;28;20002;-51
2022/02/08 09:04:18;;;;;;;;;;;4.90;99.90;;;;;;5067709;28;20346;-50
2022/02/08 09:06:46;;;;;;;;;;;5.30;99.90;;;;;;5074277;28;19929;-51
2022/02/08 09:09:16;;;;;;;;;;;5.30;99.90;;;;;;5070392;28;20019;-52
2022/02/08 09:11:55;;;;;;;;;;;5.50;99.90;;;;;;5069913;28;19932;-50
2022/02/08 09:14:36;;;;;;;;;;;5.90;99.90;;;;;;5072221;28;22121;-52
2022/02/08 09:17:28;;;;;;;;;;;5.90;99.90;;;;;;5074952;28;19958;-51
2022/02/08 09:20:13;;;;;;;;;;;5.90;99.90;;;;;;5072991;28;19930;-52
2022/02/08 09:25:59;;;;;;;;;;;6.00;99.90;;;;;;5006575;28;20305;-56
2022/02/08 09:28:40;;;;;;;;;;;6.20;99.90;;;;;;5080346;28;19980;-51
2022/02/08 09:31:09;;;;;;;;;;;7.60;99.90;;;;;;5085137;28;19967;-53
2022/02/08 09:33:37;;;;;;;;;;;9.60;99.90;;;;;;5080800;28;19990;-52
2022/02/08 09:36:04;;;;;;;;;;;10.80;99.90;;;;;;5071062;28;19924;-51
2022/02/08 09:38:34;;;;;;;;;;;11.50;99.90;;;;;;5081368;28;19932;-52
2022/02/08 09:41:01;;;;;;;;;;;12.20;99.20;;;;;;5073232;28;20590;-52
2022/02/08 09:43:29;;;;;;;;;;;12.00;96.30;;;;;;5075498;28;19924;-52
2022/02/08 09:45:59;;;;;;;;;;;10.80;97.70;;;;;;5065063;28;19970;-53
2022/02/08 09:48:30;;;;;;;;;;;10.80;96.90;;;;;;5071592;28;19912;-52
2022/02/08 09:50:58;;;;;;;;;;;10.30;97.80;;;;;;5069427;28;20003;-52
2022/02/08 09:53:31;;;;;;;;;;;9.00;98.50;;;;;;5068585;28;19924;-52
2022/02/08 09:55:58;;;;;;;;;;;7.90;98.40;;;;;;5067527;28;20026;-51
2022/02/08 09:58:24;;;;;;;;;;;7.40;99.90;;;;;;5066781;28;19924;-52
2022/02/08 10:01:02;;;;;;;;;;;6.80;99.90;;;;;;5067255;28;19932;-51
2022/02/08 10:03:28;;;;;;;;;;;6.30;99.90;;;;;;5066446;28;19966;-51
2022/02/08 10:05:56;;;;;;;;;;;6.70;99.90;;;;;;5067349;28;19925;-52
2022/02/08 10:08:24;;;;;;;;;;;6.50;99.90;;;;;;5071996;28;19924;-51
2022/02/08 10:10:51;;;;;;;;;;;6.30;99.90;;;;;;5069460;28;20439;-51
2022/02/08 10:13:33;;;;;;;;;;;6.40;99.90;;;;;;5067209;28;19993;-51
2022/02/08 10:19:08;;;;;;;;;;;7.10;99.90;;;;;;5071578;28;19946;-52
2022/02/08 10:21:48;;;;;;;;;;;7.60;99.90;;;;;;5058608;28;20356;-52
2022/02/08 10:24:17;;;;;;;;;;;9.00;98.50;;;;;;5068380;28;19925;-52
2022/02/08 10:26:55;;;;;;;;;;;9.60;98.00;;;;;;5074807;28;19932;-52
2022/02/08 10:29:27;;;;;;;;;;;10.00;97.30;;;;;;5073742;28;19925;-53
2022/02/08 10:37:41;;;;;;;;;;;12.20;93.30;;;;;;5074956;28;20570;-52
2022/02/08 10:40:11;;;;;;;;;;;11.50;93.00;;;;;;5072403;28;20014;-52
2022/02/08 10:42:38;;;;;;;;;;;10.70;93.80;;;;;;5062585;28;19932;-52
2022/02/08 10:45:17;;;;;;;;;;;9.90;94.40;;;;;;5070004;28;19925;-53
2022/02/08 10:47:45;;;;;;;;;;;9.20;95.00;;;;;;5063945;28;20036;-52
2022/02/08 10:50:12;;;;;;;;;;;8.90;95.20;;;;;;5069425;28;19956;-52
2022/02/08 10:52:42;;;;;;;;;;;8.90;96.20;;;;;;5065952;28;20444;-52
2022/02/08 10:55:20;;;;;;;;;;;8.50;95.70;;;;;;5074233;28;20398;-52
2022/02/08 10:57:54;;;;;;;;;;;8.70;95.90;;;;;;5072078;28;20015;-52
2022/02/08 11:00:27;;;;;;;;;;;8.60;95.80;;;;;;5071886;28;19925;-52
2022/02/08 11:02:57;;;;;;;;;;;8.80;96.10;;;;;;5066196;28;20305;-52
2022/02/08 11:05:29;;;;;;;;;;;8.60;96.50;;;;;;5074203;28;20355;-53
2022/02/08 11:08:11;;;;;;;;;;;8.80;97.90;;;;;;5056683;28;19925;-53
2022/02/08 11:13:38;;;;;;;;;;;8.90;98.80;;;;;;5051221;28;19924;-52
2022/02/08 11:16:15;;;;;;;;;;;9.20;97.70;;;;;;5064890;28;20006;-51
2022/02/08 11:19:01;;;;;;;;;;;9.30;97.50;;;;;;5064834;28;19935;-52
2022/02/08 11:21:39;;;;;;;;;;;9.40;97.60;;;;;;5065066;28;19932;-53
2022/02/08 11:24:22;;;;;;;;;;;9.50;97.20;;;;;;5066751;28;19941;-52
2022/02/08 11:26:56;;;;;;;;;;;9.50;97.30;;;;;;5068063;28;19925;-52
2022/02/08 11:29:27;;;;;;;;;;;9.60;97.50;;;;;;5072694;28;19928;-51
2022/02/08 11:32:00;;;;;;;;;;;9.60;97.20;;;;;;5069455;28;19931;-52
2022/02/08 11:46:06;;;;;;;;;;;10.40;94.50;;;;;;5062451;28;19951;-52
2022/02/08 11:54:24;;;;;;;;;;;10.70;95.10;;;;;;5062103;28;19931;-50
2022/02/08 11:57:26;;;;;;;;;;;10.30;95.10;;;;;;5061679;28;20059;-53
2022/02/08 12:00:11;;;;;;;;;;;10.40;94.30;;;;;;5062295;28;20466;-52
2022/02/08 12:03:12;;;;;;;;;;;10.40;94.60;;;;;;5063231;28;19928;-53
2022/02/08 12:05:46;;;;;;;;;;;10.50;94.80;;;;;;5060567;28;20201;-52
2022/02/08 12:08:14;;;;;;;;;;;10.30;96.90;;;;;;5063190;28;19960;-53
2022/02/08 12:10:47;;;;;;;;;;;10.00;96.10;;;;;;5061122;28;19936;-53
2022/02/08 12:32:41;;;;;;;;;;;10.10;95.20;;;;;;5064471;28;19921;-55
2022/02/08 12:49:41;;;;;;;;;;;10.20;94.90;;;;;;5076198;28;19971;-53
2022/02/08 12:57:48;;;;;;;;;;;10.40;94.20;;;;;;5057127;28;19932;-52
2022/02/08 13:00:26;;;;;;;;;;;10.40;94.60;;;;;;5072937;28;20317;-54
2022/02/08 13:03:12;;;;;;;;;;;10.40;93.40;;;;;;5073062;28;19999;-54
2022/02/08 14:04:42;;;;;;;;;;;9.20;94.10;;;;;;5056719;28;19947;-54
2022/02/08 14:18:00;;;;;;;;;;;9.20;94.10;;;;;;5070382;28;19992;-54
2022/02/08 14:23:28;;;;;;;;;;;9.20;94.90;;;;;;5074888;28;19927;-54
2022/02/08 14:29:14;;;;;;;;;;;9.20;94.70;;;;;;5078855;28;20000;-53
2022/02/08 14:31:51;;;;;;;;;;;9.10;95.50;;;;;;5082901;28;19931;-53
2022/02/08 14:48:50;;;;;;;;;;;9.40;94.10;;;;;;5033166;28;20011;-53
2022/02/08 15:08:10;;;;;;;;;;;9.20;94.80;;;;;;5072009;28;19927;-55
2022/02/08 15:10:39;;;;;;;;;;;9.00;94.90;;;;;;5075837;28;19928;-53
2022/02/08 15:13:07;;;;;;;;;;;8.90;95.20;;;;;;5085298;28;19974;-53
2022/02/08 15:15:44;;;;;;;;;;;8.90;95.40;;;;;;5075060;28;19925;-53
2022/02/08 15:18:12;;;;;;;;;;;8.90;97.70;;;;;;5074005;28;19932;-52
2022/02/08 15:20:39;;;;;;;;;;;8.90;98.40;;;;;;5058637;28;19924;-51
2022/02/08 15:23:10;;;;;;;;;;;8.80;98.40;;;;;;5054086;28;19982;-52
2022/02/08 15:25:37;;;;;;;;;;;8.70;98.10;;;;;;5053740;28;19924;-52
2022/02/08 15:28:05;;;;;;;;;;;8.60;97.90;;;;;;5068921;28;19998;-55
2022/02/08 15:30:32;;;;;;;;;;;8.50;97.20;;;;;;5060631;28;19924;-53
2022/02/08 15:32:59;;;;;;;;;;;8.50;97.30;;;;;;5064064;28;19928;-52
2022/02/08 15:35:27;;;;;;;;;;;8.50;97.10;;;;;;5055638;28;20009;-52
2022/02/08 15:37:54;;;;;;;;;;;8.60;96.70;;;;;;5057379;28;19974;-52
2022/02/08 15:40:21;;;;;;;;;;;8.60;96.50;;;;;;5060901;28;19978;-52
2022/02/08 15:42:48;;;;;;;;;;;8.50;96.30;;;;;;5069766;28;19925;-52
2022/02/08 15:45:20;;;;;;;;;;;8.40;96.40;;;;;;5077690;28;20349;-52
2022/02/08 15:47:47;;;;;;;;;;;8.40;96.90;;;;;;5073656;28;19925;-51
2022/02/08 15:50:19;;;;;;;;;;;8.20;97.00;;;;;;5074632;28;19970;-52
2022/02/08 15:55:44;;;;;;;;;;;8.00;97.90;;;;;;5053471;28;20338;-52
2022/02/08 15:58:22;;;;;;;;;;;8.00;97.90;;;;;;5075114;28;19960;-52
2022/02/08 16:09:14;;;;;;;;;;;7.30;99.90;;;;;;5053405;28;19960;-52
2022/02/08 16:14:35;;;;;;;;;;;7.00;99.90;;;;;;5066313;28;19968;-52
2022/02/08 16:17:14;;;;;;;;;;;6.90;99.90;;;;;;5071180;28;20446;-51
2022/02/08 16:19:52;;;;;;;;;;;6.70;99.90;;;;;;5073171;28;19982;-52
2022/02/08 16:22:59;;;;;;;;;;;6.60;99.90;;;;;;5073633;28;19925;-53
2022/02/08 16:25:39;;;;;;;;;;;6.40;99.90;;;;;;5082599;28;20015;-51
2022/02/08 16:28:23;;;;;;;;;;;6.30;99.90;;;;;;5088279;28;19928;-53
2022/02/08 16:31:22;;;;;;;;;;;6.10;99.90;;;;;;5072864;28;19924;-52
2022/02/08 16:53:39;;;;;;;;;;;5.10;99.90;;;;;;5074124;28;19995;-52
2022/02/08 16:56:19;;;;;;;;;;;4.90;99.90;;;;;;5073293;28;19970;-53
2022/02/08 16:58:53;;;;;;;;;;;4.80;99.90;;;;;;5073480;28;19928;-53
2022/02/08 17:01:24;;;;;;;;;;;4.80;99.90;;;;;;5072781;28;19924;-52
2022/02/08 17:03:51;;;;;;;;;;;4.70;99.90;;;;;;5073422;28;20031;-51
2022/02/08 17:06:19;;;;;;;;;;;4.60;99.90;;;;;;5074988;28;20015;-52
2022/02/08 17:08:47;;;;;;;;;;;4.60;99.90;;;;;;5089840;28;19928;-52
2022/02/08 17:11:21;;;;;;;;;;;4.50;99.90;;;;;;5098191;28;20390;-52
2022/02/08 17:16:51;;;;;;;;;;;4.40;99.90;;;;;;5077431;28;19925;-52
2022/02/08 17:46:55;;;;;;;;;;;4.40;99.90;;;;;;5076590;28;20018;-52
2022/02/08 17:49:22;;;;;;;;;;;4.40;99.90;;;;;;5076574;28;19933;-52
2022/02/08 17:51:48;;;;;;;;;;;4.60;99.90;;;;;;5076898;28;19971;-51
2022/02/08 17:54:15;;;;;;;;;;;4.80;99.90;;;;;;5076188;28;19928;-52
2022/02/08 17:56:43;;;;;;;;;;;5.00;99.90;;;;;;5075520;28;19924;-52
2022/02/08 17:59:10;;;;;;;;;;;5.10;99.90;;;;;;5075223;28;19924;-52
2022/02/08 18:01:36;;;;;;;;;;;5.10;99.90;;;;;;5073761;28;20346;-52
2022/02/08 18:04:05;;;;;;;;;;;5.10;99.90;;;;;;5066525;28;19929;-53
2022/02/08 18:06:32;;;;;;;;;;;5.20;99.90;;;;;;5075931;28;19925;-52
2022/02/08 18:09:03;;;;;;;;;;;5.30;99.90;;;;;;5075352;28;19978;-52
2022/02/08 18:11:36;;;;;;;;;;;5.20;99.90;;;;;;5075655;28;20406;-52
2022/02/08 18:14:03;;;;;;;;;;;5.10;99.90;;;;;;5071237;28;19986;-52
2022/02/08 18:16:33;;;;;;;;;;;5.10;99.90;;;;;;5074716;28;20381;-52
2022/02/08 18:19:08;;;;;;;;;;;5.10;99.90;;;;;;5075432;28;19924;-52
2022/02/08 18:21:41;;;;;;;;;;;5.00;99.90;;;;;;5074317;28;20014;-52
2022/02/08 18:24:30;;;;;;;;;;;5.10;99.90;;;;;;5070214;28;19928;-53
2022/02/08 19:16:54;;;;;;;;;;;4.20;99.90;;;;;;5061415;28;19979;-52
2022/02/08 19:19:38;;;;;;;;;;;4.10;99.90;;;;;;5074571;28;19931;-57
2022/02/08 19:22:05;;;;;;;;;;;3.90;99.90;;;;;;5079988;28;19932;-52
2022/02/08 19:24:32;;;;;;;;;;;3.70;99.90;;;;;;5065722;28;19924;-52
2022/02/08 19:27:01;;;;;;;;;;;3.70;99.90;;;;;;5054566;28;19979;-52
2022/02/08 19:29:30;;;;;;;;;;;3.50;99.90;;;;;;5069223;28;20332;-52
2022/02/08 19:31:56;;;;;;;;;;;3.50;99.90;;;;;;5074194;28;20010;-52
2022/02/08 19:34:24;;;;;;;;;;;3.30;99.90;;;;;;5074045;28;20440;-52
2022/02/08 19:36:53;;;;;;;;;;;3.10;99.90;;;;;;5073676;28;19924;-52
2022/02/08 19:39:19;;;;;;;;;;;3.10;99.90;;;;;;5073259;28;19954;-52
2022/02/08 19:41:47;;;;;;;;;;;3.00;99.90;;;;;;5067668;28;19987;-53
2022/02/08 19:44:15;;;;;;;;;;;2.80;99.90;;;;;;5055576;28;19940;-53
2022/02/08 19:46:42;;;;;;;;;;;2.70;99.90;;;;;;5064521;28;19963;-52
2022/02/08 19:49:09;;;;;;;;;;;2.70;99.90;;;;;;5068464;28;19932;-51
2022/02/08 19:51:38;;;;;;;;;;;2.70;99.90;;;;;;5108008;22;19934;-52
2022/02/08 19:54:07;;;;;;;;;;;2.60;99.90;;;;;;5091995;28;20623;-53
2022/02/08 19:56:38;;;;;;;;;;;2.60;99.90;;;;;;5091639;28;20425;-52
2022/02/08 19:59:07;;;;;;;;;;;2.50;99.90;;;;;;5091533;28;19928;-53
2022/02/08 20:01:38;;;;;;;;;;;2.30;99.90;;;;;;5091772;28;19924;-53
2022/02/08 20:04:06;;;;;;;;;;;2.20;99.90;;;;;;5091566;28;19939;-53
2022/02/08 20:06:34;;;;;;;;;;;2.20;99.90;;;;;;5088024;28;20015;-52
2022/02/08 20:09:03;;;;;;;;;;;2.20;99.90;;;;;;5091588;28;19924;-52
2022/02/08 20:11:30;;;;;;;;;;;2.30;99.90;;;;;;5091830;28;20047;-52
2022/02/08 20:13:57;;;;;;;;;;;2.40;99.90;;;;;;5092187;28;20344;-54
2022/02/08 20:16:25;;;;;;;;;;;2.50;99.90;;;;;;5091712;28;20386;-55
2022/02/08 20:18:55;;;;;;;;;;;2.70;99.90;;;;;;5091646;28;19928;-52
2022/02/08 20:21:23;;;;;;;;;;;2.80;99.90;;;;;;5091918;28;19928;-53
2022/02/08 20:23:51;;;;;;;;;;;2.90;99.90;;;;;;5092054;28;19924;-52
2022/02/08 20:26:19;;;;;;;;;;;3.10;99.90;;;;;;5091716;28;20309;-52
2022/02/08 20:28:55;;;;;;;;;;;3.10;99.90;;;;;;5091705;28;19928;-53
2022/02/08 20:31:22;;;;;;;;;;;3.10;99.90;;;;;;5090944;28;20401;-51
2022/02/08 20:33:48;;;;;;;;;;;3.00;99.90;;;;;;5091592;28;19924;-52
2022/02/08 20:36:17;;;;;;;;;;;2.80;99.90;;;;;;5091576;28;19977;-53
2022/02/08 20:38:45;;;;;;;;;;;2.70;99.90;;;;;;5091445;28;19928;-52
2022/02/08 20:41:12;;;;;;;;;;;2.60;99.90;;;;;;5091545;28;19991;-53
2022/02/08 20:43:40;;;;;;;;;;;2.50;99.90;;;;;;5091547;28;19924;-53
2022/02/08 20:46:07;;;;;;;;;;;2.60;99.90;;;;;;5096906;28;19928;-52
2022/02/08 20:48:34;;;;;;;;;;;2.60;99.90;;;;;;5090761;28;19924;-52
2022/02/08 20:51:02;;;;;;;;;;;2.50;99.90;;;;;;5091014;28;19985;-53
2022/02/08 20:53:40;;;;;;;;;;;2.50;99.90;;;;;;5091045;28;20000;-54
2022/02/08 20:56:15;;;;;;;;;;;2.60;99.90;;;;;;5090846;28;19928;-52